sensor_id;sensor_type;location;lat;lon;timestamp;temperature;humidity
22192;DHT22;11261;52.456;10.850;2023-02-19T00:01:53;8.60;99.90
22192;DHT22;11261;52.456;10.850;2023-02-19T00:04:23;8.60;99.90
22192;DHT22;11261;52.456;10.850;2023-02-19T00:06:51;8.60;99.90
22192;DHT22;11261;52.456;10.850;2023-02-19T00:09:20;8.50;99.90
22192;DHT22;11261;52.456;10.850;2023-02-19T00:11:48;8.40;99.90
22192;DHT22;11261;52.456;10.850;2023-02-19T00:14:19;8.50;99.90
22192;DHT22;11261;52.456;10.850;2023-02-19T00:16:48;8.30;99.90
22192;DHT22;11261;52.456;10.850;2023-02-19T00:19:17;8.10;99.90
22192;DHT22;11261;52.456;10.850;2023-02-19T00:21:49;8.00;99.90
22192;DHT22;11261;52.456;10.850;2023-02-19T00:24:18;8.00;99.90
22192;DHT22;11261;52.456;10.850;2023-02-19T00:26:47;8.10;99.90
22192;DHT22;11261;52.456;10.850;2023-02-19T00:29:18;8.20;99.90
22192;DHT22;11261;52.456;10.850;2023-02-19T00:31:47;8.30;99.90
22192;DHT22;11261;52.456;10.850;2023-02-19T00:34:15;8.20;99.90
22192;DHT22;11261;52.456;10.850;2023-02-19T00:36:43;8.20;99.90
22192;DHT22;11261;52.456;10.850;2023-02-19T00:39:14;8.10;99.90
22192;DHT22;11261;52.456;10.850;2023-02-19T00:41:44;8.10;99.90
22192;DHT22;11261;52.456;10.850;2023-02-19T00:44:13;8.10;99.90
22192;DHT22;11261;52.456;10.850;2023-02-19T00:46:43;8.00;99.90
22192;DHT22;11261;52.456;10.850;2023-02-19T00:49:15;7.90;99.90
22192;DHT22;11261;52.456;10.850;2023-02-19T00:51:43;7.80;99.90
22192;DHT22;11261;52.456;10.850;2023-02-19T00:54:13;7.80;99.90
22192;DHT22;11261;52.456;10.850;2023-02-19T00:56:42;7.80;99.90
22192;DHT22;11261;52.456;10.850;2023-02-19T00:59:10;7.90;99.90
22192;DHT22;11261;52.456;10.850;2023-02-19T01:01:39;7.90;99.90
22192;DHT22;11261;52.456;10.850;2023-02-19T01:04:07;7.70;99.90
22192;DHT22;11261;52.456;10.850;2023-02-19T01:06:36;7.70;99.90
22192;DHT22;11261;52.456;10.850;2023-02-19T01:09:23;7.80;99.90
22192;DHT22;11261;52.456;10.850;2023-02-19T01:11:51;8.00;99.90
22192;DHT22;11261;52.456;10.850;2023-02-19T01:14:20;8.00;99.90
22192;DHT22;11261;52.456;10.850;2023-02-19T01:16:48;7.90;99.90
22192;DHT22;11261;52.456;10.850;2023-02-19T01:19:16;7.90;99.90
22192;DHT22;11261;52.456;10.850;2023-02-19T01:21:44;7.90;99.90
22192;DHT22;11261;52.456;10.850;2023-02-19T01:24:12;8.00;99.90
22192;DHT22;11261;52.456;10.850;2023-02-19T01:26:44;8.00;99.90
22192;DHT22;11261;52.456;10.850;2023-02-19T01:29:12;8.00;99.90
22192;DHT22;11261;52.456;10.850;2023-02-19T01:31:40;7.80;99.90
22192;DHT22;11261;52.456;10.850;2023-02-19T01:34:10;7.60;99.90
22192;DHT22;11261;52.456;10.850;2023-02-19T01:36:38;7.60;99.90
22192;DHT22;11261;52.456;10.850;2023-02-19T01:39:07;7.40;99.90
22192;DHT22;11261;52.456;10.850;2023-02-19T01:41:38;7.30;99.90
22192;DHT22;11261;52.456;10.850;2023-02-19T01:47:16;7.40;99.90
22192;DHT22;11261;52.456;10.850;2023-02-19T01:49:47;7.50;99.90
22192;DHT22;11261;52.456;10.850;2023-02-19T01:52:20;7.60;99.90
22192;DHT22;11261;52.456;10.850;2023-02-19T01:54:52;7.50;99.90
22192;DHT22;11261;52.456;10.850;2023-02-19T01:57:26;7.50;99.90
22192;DHT22;11261;52.456;10.850;2023-02-19T02:00:02;7.70;99.90
22192;DHT22;11261;52.456;10.850;2023-02-19T02:02:31;7.80;99.90
22192;DHT22;11261;52.456;10.850;2023-02-19T02:05:00;7.70;99.90
22192;DHT22;11261;52.456;10.850;2023-02-19T02:07:29;7.70;99.90
22192;DHT22;11261;52.456;10.850;2023-02-19T02:10:14;7.70;99.90
22192;DHT22;11261;52.456;10.850;2023-02-19T02:12:52;7.80;99.90
22192;DHT22;11261;52.456;10.850;2023-02-19T02:15:27;7.80;99.90
22192;DHT22;11261;52.456;10.850;2023-02-19T02:18:01;7.80;99.90
22192;DHT22;11261;52.456;10.850;2023-02-19T02:20:46;7.90;99.90
22192;DHT22;11261;52.456;10.850;2023-02-19T02:23:25;7.90;99.90
22192;DHT22;11261;52.456;10.850;2023-02-19T02:26:08;7.80;99.90
22192;DHT22;11261;52.456;10.850;2023-02-19T02:29:10;7.80;99.90
22192;DHT22;11261;52.456;10.850;2023-02-19T02:31:48;7.70;99.90
22192;DHT22;11261;52.456;10.850;2023-02-19T02:34:23;7.70;99.90
22192;DHT22;11261;52.456;10.850;2023-02-19T02:36:55;7.60;99.90
22192;DHT22;11261;52.456;10.850;2023-02-19T02:39:25;7.50;99.90
22192;DHT22;11261;52.456;10.850;2023-02-19T02:41:57;7.40;99.90
22192;DHT22;11261;52.456;10.850;2023-02-19T02:44:45;7.20;99.90
22192;DHT22;11261;52.456;10.850;2023-02-19T02:47:38;7.30;99.90
22192;DHT22;11261;52.456;10.850;2023-02-19T02:50:12;7.30;99.90
22192;DHT22;11261;52.456;10.850;2023-02-19T02:52:45;7.30;99.90
22192;DHT22;11261;52.456;10.850;2023-02-19T02:55:38;7.00;99.90
22192;DHT22;11261;52.456;10.850;2023-02-19T02:58:08;6.90;99.90
22192;DHT22;11261;52.456;10.850;2023-02-19T03:00:39;6.80;99.90
22192;DHT22;11261;52.456;10.850;2023-02-19T03:03:28;6.70;99.90
22192;DHT22;11261;52.456;10.850;2023-02-19T03:06:01;6.50;99.90
22192;DHT22;11261;52.456;10.850;2023-02-19T03:08:35;6.30;99.90
22192;DHT22;11261;52.456;10.850;2023-02-19T03:11:06;6.40;99.90
22192;DHT22;11261;52.456;10.850;2023-02-19T03:13:58;6.30;99.90
22192;DHT22;11261;52.456;10.850;2023-02-19T03:16:47;6.20;99.90
22192;DHT22;11261;52.456;10.850;2023-02-19T03:19:39;6.00;99.90
22192;DHT22;11261;52.456;10.850;2023-02-19T03:22:12;5.90;99.90
22192;DHT22;11261;52.456;10.850;2023-02-19T03:24:45;5.70;99.90
22192;DHT22;11261;52.456;10.850;2023-02-19T03:27:33;5.80;99.90
22192;DHT22;11261;52.456;10.850;2023-02-19T03:30:08;5.90;99.90
22192;DHT22;11261;52.456;10.850;2023-02-19T03:32:42;5.90;99.90
22192;DHT22;11261;52.456;10.850;2023-02-19T03:35:14;6.10;99.90
22192;DHT22;11261;52.456;10.850;2023-02-19T03:37:48;6.10;99.90
22192;DHT22;11261;52.456;10.850;2023-02-19T03:40:17;5.90;99.90
22192;DHT22;11261;52.456;10.850;2023-02-19T03:42:55;5.80;99.90
22192;DHT22;11261;52.456;10.850;2023-02-19T03:45:45;5.80;99.90
22192;DHT22;11261;52.456;10.850;2023-02-19T03:48:25;5.50;99.90
22192;DHT22;11261;52.456;10.850;2023-02-19T03:51:04;5.60;99.90
22192;DHT22;11261;52.456;10.850;2023-02-19T03:53:46;5.70;99.90
22192;DHT22;11261;52.456;10.850;2023-02-19T03:56:18;5.80;99.90
22192;DHT22;11261;52.456;10.850;2023-02-19T03:58:53;5.90;99.90
22192;DHT22;11261;52.456;10.850;2023-02-19T04:01:27;5.70;99.90
22192;DHT22;11261;52.456;10.850;2023-02-19T04:04:01;5.70;99.90
22192;DHT22;11261;52.456;10.850;2023-02-19T04:06:33;6.00;99.90
22192;DHT22;11261;52.456;10.850;2023-02-19T04:09:06;6.10;99.90
22192;DHT22;11261;52.456;10.850;2023-02-19T04:11:36;6.00;99.90
22192;DHT22;11261;52.456;10.850;2023-02-19T04:14:09;5.90;99.90
22192;DHT22;11261;52.456;10.850;2023-02-19T04:16:40;5.70;99.90
22192;DHT22;11261;52.456;10.850;2023-02-19T04:19:11;5.70;99.90
22192;DHT22;11261;52.456;10.850;2023-02-19T04:21:42;5.80;99.90
22192;DHT22;11261;52.456;10.850;2023-02-19T04:24:15;5.70;99.90
22192;DHT22;11261;52.456;10.850;2023-02-19T04:26:46;5.60;99.90
22192;DHT22;11261;52.456;10.850;2023-02-19T04:29:14;5.10;99.90
22192;DHT22;11261;52.456;10.850;2023-02-19T04:31:42;4.90;99.90
22192;DHT22;11261;52.456;10.850;2023-02-19T04:34:11;4.70;99.90
22192;DHT22;11261;52.456;10.850;2023-02-19T04:36:40;4.90;99.90
22192;DHT22;11261;52.456;10.850;2023-02-19T04:39:09;4.80;99.90
22192;DHT22;11261;52.456;10.850;2023-02-19T04:41:37;5.10;99.90
22192;DHT22;11261;52.456;10.850;2023-02-19T04:44:05;5.10;99.90
22192;DHT22;11261;52.456;10.850;2023-02-19T04:46:34;5.10;99.90
22192;DHT22;11261;52.456;10.850;2023-02-19T04:49:02;4.80;99.90
22192;DHT22;11261;52.456;10.850;2023-02-19T04:51:31;4.70;99.90
22192;DHT22;11261;52.456;10.850;2023-02-19T04:54:00;4.70;99.90
22192;DHT22;11261;52.456;10.850;2023-02-19T04:56:29;4.90;99.90
22192;DHT22;11261;52.456;10.850;2023-02-19T04:58:57;5.00;99.90
22192;DHT22;11261;52.456;10.850;2023-02-19T05:01:25;4.90;99.90
22192;DHT22;11261;52.456;10.850;2023-02-19T05:03:54;4.70;99.90
22192;DHT22;11261;52.456;10.850;2023-02-19T05:06:22;4.70;99.90
22192;DHT22;11261;52.456;10.850;2023-02-19T05:08:50;4.50;99.90
22192;DHT22;11261;52.456;10.850;2023-02-19T05:11:20;4.70;99.90
22192;DHT22;11261;52.456;10.850;2023-02-19T05:13:49;4.80;99.90
22192;DHT22;11261;52.456;10.850;2023-02-19T05:16:17;4.70;99.90
22192;DHT22;11261;52.456;10.850;2023-02-19T05:18:45;4.70;99.90
22192;DHT22;11261;52.456;10.850;2023-02-19T05:21:14;4.60;99.90
22192;DHT22;11261;52.456;10.850;2023-02-19T05:23:43;4.70;99.90
22192;DHT22;11261;52.456;10.850;2023-02-19T05:26:13;4.60;99.90
22192;DHT22;11261;52.456;10.850;2023-02-19T05:28:45;4.60;99.90
22192;DHT22;11261;52.456;10.850;2023-02-19T05:31:15;4.60;99.90
22192;DHT22;11261;52.456;10.850;2023-02-19T05:33:44;4.50;99.90
22192;DHT22;11261;52.456;10.850;2023-02-19T05:36:16;4.60;99.90
22192;DHT22;11261;52.456;10.850;2023-02-19T05:38:45;4.60;99.90
22192;DHT22;11261;52.456;10.850;2023-02-19T05:41:15;4.70;99.90
22192;DHT22;11261;52.456;10.850;2023-02-19T05:43:46;4.70;99.90
22192;DHT22;11261;52.456;10.850;2023-02-19T05:46:17;4.60;99.90
22192;DHT22;11261;52.456;10.850;2023-02-19T05:48:46;4.40;99.90
22192;DHT22;11261;52.456;10.850;2023-02-19T05:51:16;4.50;99.90
22192;DHT22;11261;52.456;10.850;2023-02-19T05:53:45;4.60;99.90
22192;DHT22;11261;52.456;10.850;2023-02-19T05:56:23;4.60;99.90
22192;DHT22;11261;52.456;10.850;2023-02-19T05:58:56;4.50;99.90
22192;DHT22;11261;52.456;10.850;2023-02-19T06:01:26;4.60;99.90
22192;DHT22;11261;52.456;10.850;2023-02-19T06:03:56;4.50;99.90
22192;DHT22;11261;52.456;10.850;2023-02-19T06:06:25;4.50;99.90
22192;DHT22;11261;52.456;10.850;2023-02-19T06:08:54;4.50;99.90
22192;DHT22;11261;52.456;10.850;2023-02-19T06:11:23;4.60;99.90
22192;DHT22;11261;52.456;10.850;2023-02-19T06:13:51;4.60;99.90
22192;DHT22;11261;52.456;10.850;2023-02-19T06:16:20;4.70;99.90
22192;DHT22;11261;52.456;10.850;2023-02-19T06:18:49;4.60;99.90
22192;DHT22;11261;52.456;10.850;2023-02-19T06:21:18;4.70;99.90
22192;DHT22;11261;52.456;10.850;2023-02-19T06:23:46;4.80;99.90
22192;DHT22;11261;52.456;10.850;2023-02-19T06:26:16;4.80;99.90
22192;DHT22;11261;52.456;10.850;2023-02-19T06:28:46;4.80;99.90
22192;DHT22;11261;52.456;10.850;2023-02-19T06:31:16;4.90;99.90
22192;DHT22;11261;52.456;10.850;2023-02-19T06:33:46;4.90;99.90
22192;DHT22;11261;52.456;10.850;2023-02-19T06:36:18;4.90;99.90
22192;DHT22;11261;52.456;10.850;2023-02-19T06:38:46;4.80;99.90
22192;DHT22;11261;52.456;10.850;2023-02-19T06:41:15;4.80;99.90
22192;DHT22;11261;52.456;10.850;2023-02-19T06:43:43;4.90;99.90
22192;DHT22;11261;52.456;10.850;2023-02-19T06:46:12;4.90;99.90
22192;DHT22;11261;52.456;10.850;2023-02-19T06:48:42;4.90;99.90
22192;DHT22;11261;52.456;10.850;2023-02-19T06:51:14;4.90;99.90
22192;DHT22;11261;52.456;10.850;2023-02-19T06:53:44;4.90;99.90
22192;DHT22;11261;52.456;10.850;2023-02-19T06:56:24;4.90;99.90
22192;DHT22;11261;52.456;10.850;2023-02-19T06:58:53;4.90;99.90
22192;DHT22;11261;52.456;10.850;2023-02-19T07:01:22;5.00;99.90
22192;DHT22;11261;52.456;10.850;2023-02-19T07:03:51;5.10;99.90
22192;DHT22;11261;52.456;10.850;2023-02-19T07:06:22;5.10;99.90
22192;DHT22;11261;52.456;10.850;2023-02-19T07:08:51;5.10;99.90
22192;DHT22;11261;52.456;10.850;2023-02-19T07:11:19;5.20;99.90
22192;DHT22;11261;52.456;10.850;2023-02-19T07:13:53;5.20;99.90
22192;DHT22;11261;52.456;10.850;2023-02-19T07:16:22;5.10;99.90
22192;DHT22;11261;52.456;10.850;2023-02-19T07:18:51;5.00;99.90
22192;DHT22;11261;52.456;10.850;2023-02-19T07:21:21;5.10;99.90
22192;DHT22;11261;52.456;10.850;2023-02-19T07:23:49;5.10;99.90
22192;DHT22;11261;52.456;10.850;2023-02-19T07:26:19;5.20;99.90
22192;DHT22;11261;52.456;10.850;2023-02-19T07:28:49;5.20;99.90
22192;DHT22;11261;52.456;10.850;2023-02-19T07:31:20;5.20;99.90
22192;DHT22;11261;52.456;10.850;2023-02-19T07:33:49;5.30;99.90
22192;DHT22;11261;52.456;10.850;2023-02-19T07:36:18;5.20;99.90
22192;DHT22;11261;52.456;10.850;2023-02-19T07:38:52;5.40;99.90
22192;DHT22;11261;52.456;10.850;2023-02-19T07:41:21;5.30;99.90
22192;DHT22;11261;52.456;10.850;2023-02-19T07:43:50;5.30;99.90
22192;DHT22;11261;52.456;10.850;2023-02-19T07:46:19;5.20;99.90
22192;DHT22;11261;52.456;10.850;2023-02-19T07:48:48;5.20;99.90
22192;DHT22;11261;52.456;10.850;2023-02-19T07:51:17;5.20;99.90
22192;DHT22;11261;52.456;10.850;2023-02-19T07:53:47;5.30;99.90
22192;DHT22;11261;52.456;10.850;2023-02-19T07:56:19;5.20;99.90
22192;DHT22;11261;52.456;10.850;2023-02-19T07:58:47;5.40;99.90
22192;DHT22;11261;52.456;10.850;2023-02-19T08:01:17;5.40;99.90
22192;DHT22;11261;52.456;10.850;2023-02-19T08:04:06;5.40;99.90
22192;DHT22;11261;52.456;10.850;2023-02-19T08:06:33;5.40;99.90
22192;DHT22;11261;52.456;10.850;2023-02-19T08:09:02;5.40;99.90
22192;DHT22;11261;52.456;10.850;2023-02-19T08:11:32;5.50;99.90
22192;DHT22;11261;52.456;10.850;2023-02-19T08:14:18;5.40;99.90
22192;DHT22;11261;52.456;10.850;2023-02-19T08:16:48;5.40;99.90
22192;DHT22;11261;52.456;10.850;2023-02-19T08:19:17;5.60;99.90
22192;DHT22;11261;52.456;10.850;2023-02-19T08:21:45;5.50;99.90
22192;DHT22;11261;52.456;10.850;2023-02-19T08:24:13;5.60;99.90
22192;DHT22;11261;52.456;10.850;2023-02-19T08:26:43;5.60;99.90
22192;DHT22;11261;52.456;10.850;2023-02-19T08:29:11;5.80;99.90
22192;DHT22;11261;52.456;10.850;2023-02-19T08:31:40;6.00;99.90
22192;DHT22;11261;52.456;10.850;2023-02-19T08:34:08;5.90;99.90
22192;DHT22;11261;52.456;10.850;2023-02-19T08:36:37;5.80;99.90
22192;DHT22;11261;52.456;10.850;2023-02-19T08:39:05;5.90;99.90
22192;DHT22;11261;52.456;10.850;2023-02-19T08:41:33;6.00;99.90
22192;DHT22;11261;52.456;10.850;2023-02-19T08:44:03;6.00;99.90
22192;DHT22;11261;52.456;10.850;2023-02-19T08:46:31;6.10;99.90
22192;DHT22;11261;52.456;10.850;2023-02-19T08:49:00;6.60;99.90
22192;DHT22;11261;52.456;10.850;2023-02-19T08:51:28;6.80;99.90
22192;DHT22;11261;52.456;10.850;2023-02-19T08:53:57;6.70;99.90
22192;DHT22;11261;52.456;10.850;2023-02-19T08:56:25;6.70;99.90
22192;DHT22;11261;52.456;10.850;2023-02-19T08:58:53;6.40;99.90
22192;DHT22;11261;52.456;10.850;2023-02-19T09:01:23;6.60;99.90
22192;DHT22;11261;52.456;10.850;2023-02-19T09:03:52;6.60;99.90
22192;DHT22;11261;52.456;10.850;2023-02-19T09:06:20;6.80;99.90
22192;DHT22;11261;52.456;10.850;2023-02-19T09:08:48;7.30;99.90
22192;DHT22;11261;52.456;10.850;2023-02-19T09:11:16;7.10;99.90
22192;DHT22;11261;52.456;10.850;2023-02-19T09:13:45;7.40;99.90
22192;DHT22;11261;52.456;10.850;2023-02-19T09:16:13;7.50;99.90
22192;DHT22;11261;52.456;10.850;2023-02-19T09:18:42;7.70;99.90
22192;DHT22;11261;52.456;10.850;2023-02-19T09:21:11;7.50;99.90
22192;DHT22;11261;52.456;10.850;2023-02-19T09:23:39;7.70;99.90
22192;DHT22;11261;52.456;10.850;2023-02-19T09:26:09;7.80;99.90
22192;DHT22;11261;52.456;10.850;2023-02-19T09:28:40;7.90;99.90
22192;DHT22;11261;52.456;10.850;2023-02-19T09:31:11;8.20;99.90
22192;DHT22;11261;52.456;10.850;2023-02-19T09:33:46;8.00;99.90
22192;DHT22;11261;52.456;10.850;2023-02-19T09:36:15;8.70;99.90
22192;DHT22;11261;52.456;10.850;2023-02-19T09:38:44;9.00;99.90
22192;DHT22;11261;52.456;10.850;2023-02-19T09:41:17;8.70;99.90
22192;DHT22;11261;52.456;10.850;2023-02-19T09:43:47;8.50;99.90
22192;DHT22;11261;52.456;10.850;2023-02-19T09:46:23;8.50;99.90
22192;DHT22;11261;52.456;10.850;2023-02-19T09:49:02;9.10;99.90
22192;DHT22;11261;52.456;10.850;2023-02-19T09:51:32;9.90;99.90
22192;DHT22;11261;52.456;10.850;2023-02-19T09:54:03;9.20;99.90
22192;DHT22;11261;52.456;10.850;2023-02-19T09:56:33;8.90;99.90
22192;DHT22;11261;52.456;10.850;2023-02-19T09:59:02;9.10;99.90
22192;DHT22;11261;52.456;10.850;2023-02-19T10:01:32;9.10;99.90
22192;DHT22;11261;52.456;10.850;2023-02-19T10:04:03;8.30;99.90
22192;DHT22;11261;52.456;10.850;2023-02-19T10:06:31;9.10;99.90
22192;DHT22;11261;52.456;10.850;2023-02-19T10:09:12;9.40;99.90
22192;DHT22;11261;52.456;10.850;2023-02-19T10:11:44;9.00;99.90
22192;DHT22;11261;52.456;10.850;2023-02-19T10:14:17;9.90;99.90
22192;DHT22;11261;52.456;10.850;2023-02-19T10:16:47;10.60;99.90
22192;DHT22;11261;52.456;10.850;2023-02-19T10:19:17;10.40;99.90
22192;DHT22;11261;52.456;10.850;2023-02-19T10:21:45;10.00;99.90
22192;DHT22;11261;52.456;10.850;2023-02-19T10:24:19;10.40;99.90
22192;DHT22;11261;52.456;10.850;2023-02-19T10:26:49;10.30;99.90
22192;DHT22;11261;52.456;10.850;2023-02-19T10:29:17;9.40;99.90
22192;DHT22;11261;52.456;10.850;2023-02-19T10:31:47;10.20;99.90
22192;DHT22;11261;52.456;10.850;2023-02-19T10:34:21;10.60;99.90
22192;DHT22;11261;52.456;10.850;2023-02-19T10:36:50;10.10;99.90
22192;DHT22;11261;52.456;10.850;2023-02-19T10:39:38;9.80;99.90
22192;DHT22;11261;52.456;10.850;2023-02-19T10:42:14;9.90;99.90
22192;DHT22;11261;52.456;10.850;2023-02-19T10:44:45;9.90;99.90
22192;DHT22;11261;52.456;10.850;2023-02-19T10:47:19;10.50;99.90
22192;DHT22;11261;52.456;10.850;2023-02-19T10:49:51;10.30;99.90
22192;DHT22;11261;52.456;10.850;2023-02-19T10:52:22;10.30;99.90
22192;DHT22;11261;52.456;10.850;2023-02-19T10:54:53;10.50;99.90
22192;DHT22;11261;52.456;10.850;2023-02-19T10:57:28;10.70;99.90
22192;DHT22;11261;52.456;10.850;2023-02-19T11:00:00;10.70;99.90
22192;DHT22;11261;52.456;10.850;2023-02-19T11:02:30;10.50;99.90
22192;DHT22;11261;52.456;10.850;2023-02-19T11:05:14;10.80;99.90
22192;DHT22;11261;52.456;10.850;2023-02-19T11:07:45;10.60;99.90
22192;DHT22;11261;52.456;10.850;2023-02-19T11:10:24;11.60;99.90
22192;DHT22;11261;52.456;10.850;2023-02-19T11:12:55;12.00;99.90
22192;DHT22;11261;52.456;10.850;2023-02-19T11:15:26;11.90;99.90
22192;DHT22;11261;52.456;10.850;2023-02-19T11:18:02;12.50;99.90
22192;DHT22;11261;52.456;10.850;2023-02-19T11:20:32;12.30;99.90
22192;DHT22;11261;52.456;10.850;2023-02-19T11:23:12;11.70;99.90
22192;DHT22;11261;52.456;10.850;2023-02-19T11:25:44;11.10;99.90
22192;DHT22;11261;52.456;10.850;2023-02-19T11:28:25;11.10;99.90
22192;DHT22;11261;52.456;10.850;2023-02-19T11:30:55;11.10;99.90
22192;DHT22;11261;52.456;10.850;2023-02-19T11:33:43;10.80;99.90
22192;DHT22;11261;52.456;10.850;2023-02-19T11:36:25;11.10;99.90
22192;DHT22;11261;52.456;10.850;2023-02-19T11:38:57;12.00;99.90
22192;DHT22;11261;52.456;10.850;2023-02-19T11:41:39;11.40;99.90
22192;DHT22;11261;52.456;10.850;2023-02-19T11:44:22;11.00;99.90
22192;DHT22;11261;52.456;10.850;2023-02-19T11:47:11;10.90;99.90
22192;DHT22;11261;52.456;10.850;2023-02-19T11:49:47;10.40;99.90
22192;DHT22;11261;52.456;10.850;2023-02-19T11:52:29;10.90;99.90
22192;DHT22;11261;52.456;10.850;2023-02-19T11:55:06;11.20;99.90
22192;DHT22;11261;52.456;10.850;2023-02-19T11:57:41;11.50;99.90
22192;DHT22;11261;52.456;10.850;2023-02-19T12:00:24;11.00;99.90
22192;DHT22;11261;52.456;10.850;2023-02-19T12:03:17;11.10;99.90
22192;DHT22;11261;52.456;10.850;2023-02-19T12:09:18;11.00;99.90
22192;DHT22;11261;52.456;10.850;2023-02-19T12:12:08;11.40;99.90
22192;DHT22;11261;52.456;10.850;2023-02-19T12:15:06;11.70;99.90
22192;DHT22;11261;52.456;10.850;2023-02-19T12:17:48;10.80;99.90
22192;DHT22;11261;52.456;10.850;2023-02-19T12:20:26;10.90;99.90
22192;DHT22;11261;52.456;10.850;2023-02-19T12:23:16;10.70;99.90
22192;DHT22;11261;52.456;10.850;2023-02-19T12:25:57;11.00;99.90
22192;DHT22;11261;52.456;10.850;2023-02-19T12:28:46;11.20;99.90
22192;DHT22;11261;52.456;10.850;2023-02-19T12:31:37;11.00;99.90
22192;DHT22;11261;52.456;10.850;2023-02-19T12:34:25;10.70;99.90
22192;DHT22;11261;52.456;10.850;2023-02-19T12:37:06;10.70;99.90
22192;DHT22;11261;52.456;10.850;2023-02-19T12:39:41;10.60;99.90
22192;DHT22;11261;52.456;10.850;2023-02-19T12:42:24;10.70;99.90
22192;DHT22;11261;52.456;10.850;2023-02-19T12:44:57;10.90;99.90
22192;DHT22;11261;52.456;10.850;2023-02-19T12:47:30;10.80;99.90
22192;DHT22;11261;52.456;10.850;2023-02-19T12:50:02;10.80;99.90
22192;DHT22;11261;52.456;10.850;2023-02-19T12:52:35;10.60;99.90
22192;DHT22;11261;52.456;10.850;2023-02-19T12:55:16;10.60;99.90
22192;DHT22;11261;52.456;10.850;2023-02-19T12:57:50;10.40;99.90
22192;DHT22;11261;52.456;10.850;2023-02-19T13:00:28;10.40;99.90
22192;DHT22;11261;52.456;10.850;2023-02-19T13:03:00;10.30;99.90
22192;DHT22;11261;52.456;10.850;2023-02-19T13:05:39;10.70;99.90
22192;DHT22;11261;52.456;10.850;2023-02-19T13:08:13;10.60;99.90
22192;DHT22;11261;52.456;10.850;2023-02-19T13:10:45;10.50;99.90
22192;DHT22;11261;52.456;10.850;2023-02-19T13:13:20;10.70;99.90
22192;DHT22;11261;52.456;10.850;2023-02-19T13:15:52;10.70;99.90
22192;DHT22;11261;52.456;10.850;2023-02-19T13:18:28;10.80;99.90
22192;DHT22;11261;52.456;10.850;2023-02-19T13:20:57;10.50;99.90
22192;DHT22;11261;52.456;10.850;2023-02-19T13:23:29;10.10;99.90
22192;DHT22;11261;52.456;10.850;2023-02-19T13:26:30;10.40;99.90
22192;DHT22;11261;52.456;10.850;2023-02-19T13:29:15;10.20;99.90
22192;DHT22;11261;52.456;10.850;2023-02-19T13:31:59;10.40;99.90
22192;DHT22;11261;52.456;10.850;2023-02-19T13:34:42;10.30;99.90
22192;DHT22;11261;52.456;10.850;2023-02-19T13:37:14;10.30;99.90
22192;DHT22;11261;52.456;10.850;2023-02-19T13:39:46;10.40;99.90
22192;DHT22;11261;52.456;10.850;2023-02-19T13:42:24;10.20;99.90
22192;DHT22;11261;52.456;10.850;2023-02-19T13:44:54;9.90;99.90
22192;DHT22;11261;52.456;10.850;2023-02-19T13:47:47;9.90;99.90
22192;DHT22;11261;52.456;10.850;2023-02-19T13:50:21;10.00;99.90
22192;DHT22;11261;52.456;10.850;2023-02-19T13:52:50;10.20;99.90
22192;DHT22;11261;52.456;10.850;2023-02-19T13:55:50;10.30;99.90
22192;DHT22;11261;52.456;10.850;2023-02-19T14:04:52;10.40;99.90
22192;DHT22;11261;52.456;10.850;2023-02-19T14:10:55;10.20;99.90
22192;DHT22;11261;52.456;10.850;2023-02-19T14:16:58;10.00;99.90
22192;DHT22;11261;52.456;10.850;2023-02-19T14:19:50;10.10;99.90
22192;DHT22;11261;52.456;10.850;2023-02-19T14:25:42;9.90;99.90
22192;DHT22;11261;52.456;10.850;2023-02-19T14:28:36;10.10;99.90
22192;DHT22;11261;52.456;10.850;2023-02-19T14:31:18;10.00;99.90
22192;DHT22;11261;52.456;10.850;2023-02-19T14:33:49;10.10;99.90
22192;DHT22;11261;52.456;10.850;2023-02-19T14:36:34;10.00;99.90
22192;DHT22;11261;52.456;10.850;2023-02-19T14:39:11;10.00;99.90
22192;DHT22;11261;52.456;10.850;2023-02-19T14:41:43;9.80;99.90
22192;DHT22;11261;52.456;10.850;2023-02-19T14:44:16;9.70;99.90
22192;DHT22;11261;52.456;10.850;2023-02-19T14:46:50;9.60;99.90
22192;DHT22;11261;52.456;10.850;2023-02-19T14:49:23;9.80;99.90
22192;DHT22;11261;52.456;10.850;2023-02-19T14:51:57;9.80;99.90
22192;DHT22;11261;52.456;10.850;2023-02-19T14:54:38;9.60;99.90
22192;DHT22;11261;52.456;10.850;2023-02-19T14:57:14;9.50;99.90
22192;DHT22;11261;52.456;10.850;2023-02-19T14:59:54;9.40;99.90
22192;DHT22;11261;52.456;10.850;2023-02-19T15:02:25;9.60;99.90
22192;DHT22;11261;52.456;10.850;2023-02-19T15:04:54;9.50;99.90
22192;DHT22;11261;52.456;10.850;2023-02-19T15:07:25;9.50;99.90
22192;DHT22;11261;52.456;10.850;2023-02-19T15:09:58;9.70;99.90
22192;DHT22;11261;52.456;10.850;2023-02-19T15:12:33;9.60;99.90
22192;DHT22;11261;52.456;10.850;2023-02-19T15:15:04;9.40;99.90
22192;DHT22;11261;52.456;10.850;2023-02-19T15:17:34;9.20;99.90
22192;DHT22;11261;52.456;10.850;2023-02-19T15:20:07;9.20;99.90
22192;DHT22;11261;52.456;10.850;2023-02-19T15:22:38;9.40;99.90
22192;DHT22;11261;52.456;10.850;2023-02-19T15:25:14;9.40;99.90
22192;DHT22;11261;52.456;10.850;2023-02-19T15:27:43;9.20;99.90
22192;DHT22;11261;52.456;10.850;2023-02-19T15:30:18;9.20;99.90
22192;DHT22;11261;52.456;10.850;2023-02-19T15:32:51;9.10;99.90
22192;DHT22;11261;52.456;10.850;2023-02-19T15:35:20;9.00;99.90
22192;DHT22;11261;52.456;10.850;2023-02-19T15:37:53;9.00;99.90
22192;DHT22;11261;52.456;10.850;2023-02-19T15:40:25;9.00;99.90
22192;DHT22;11261;52.456;10.850;2023-02-19T15:42:56;8.80;99.90
22192;DHT22;11261;52.456;10.850;2023-02-19T15:45:29;8.80;99.90
22192;DHT22;11261;52.456;10.850;2023-02-19T15:48:01;8.90;99.90
22192;DHT22;11261;52.456;10.850;2023-02-19T15:50:33;8.60;99.90
22192;DHT22;11261;52.456;10.850;2023-02-19T15:53:06;8.60;99.90
22192;DHT22;11261;52.456;10.850;2023-02-19T15:55:39;8.50;99.90
22192;DHT22;11261;52.456;10.850;2023-02-19T15:58:17;8.80;99.90
22192;DHT22;11261;52.456;10.850;2023-02-19T16:00:49;8.90;99.90
22192;DHT22;11261;52.456;10.850;2023-02-19T16:03:22;8.90;99.90
22192;DHT22;11261;52.456;10.850;2023-02-19T16:05:58;8.60;99.90
22192;DHT22;11261;52.456;10.850;2023-02-19T16:08:30;8.60;99.90
22192;DHT22;11261;52.456;10.850;2023-02-19T16:11:00;8.60;99.90
22192;DHT22;11261;52.456;10.850;2023-02-19T16:13:30;8.50;99.90
22192;DHT22;11261;52.456;10.850;2023-02-19T16:16:05;8.60;99.90
22192;DHT22;11261;52.456;10.850;2023-02-19T16:18:43;8.60;99.90
22192;DHT22;11261;52.456;10.850;2023-02-19T16:21:15;8.60;99.90
22192;DHT22;11261;52.456;10.850;2023-02-19T16:23:47;8.50;99.90
22192;DHT22;11261;52.456;10.850;2023-02-19T16:26:16;8.40;99.90
22192;DHT22;11261;52.456;10.850;2023-02-19T16:28:49;8.30;99.90